Time;durP1;ratioP1;P1;durP2;ratioP2;P2;SDS_P1;SDS_P2;PMS_P1;PMS_P2;Temp;Humidity;BMP_temperature;BMP_pressure;BME280_temperature;BME280_humidity;BME280_pressure;Samples;Min_cycle;Max_cycle;Signal;HPM_P1;HPM_P2
2024/04/09 00:01:24;;;;;;;10.70;9.60;;;14.70;99.90;;;;;;5370152;26;20476;-74
2024/04/09 00:03:51;;;;;;;12.88;9.88;;;14.70;99.90;;;;;;5365393;26;20000;-74
2024/04/09 00:06:19;;;;;;;14.95;10.50;;;14.70;99.90;;;;;;5361765;26;20497;-74
2024/04/09 00:08:46;;;;;;;16.70;11.18;;;14.70;99.90;;;;;;5373420;26;20048;-74
2024/04/09 00:11:21;;;;;;;14.18;10.10;;;14.70;99.90;;;;;;5365905;26;20030;-74
2024/04/09 00:13:52;;;;;;;13.25;9.35;;;14.70;99.90;;;;;;5360499;26;20029;-74
2024/04/09 00:16:22;;;;;;;15.43;10.30;;;14.80;99.90;;;;;;5363535;26;20025;-74
2024/04/09 00:18:49;;;;;;;18.02;10.85;;;14.80;99.90;;;;;;5363488;26;20035;-74
2024/04/09 00:21:17;;;;;;;15.57;10.45;;;14.80;99.90;;;;;;5364836;26;20653;-74
2024/04/09 00:23:44;;;;;;;15.27;10.00;;;14.80;99.90;;;;;;5361769;26;20028;-75
2024/04/09 00:26:11;;;;;;;19.33;8.88;;;14.90;99.90;;;;;;5365337;26;20029;-78
2024/04/09 00:28:38;;;;;;;19.52;10.07;;;14.90;99.90;;;;;;5367638;26;20398;-77
2024/04/09 00:31:05;;;;;;;19.15;11.52;;;14.90;99.90;;;;;;5356812;26;20031;-78
2024/04/09 00:33:32;;;;;;;18.85;11.38;;;14.90;99.90;;;;;;5366858;26;20025;-78
2024/04/09 00:35:59;;;;;;;20.88;12.50;;;14.90;99.90;;;;;;5355218;26;20046;-80
2024/04/09 00:38:27;;;;;;;22.00;12.35;;;14.90;99.90;;;;;;5363053;26;20033;-80
2024/04/09 00:40:54;;;;;;;16.88;12.10;;;14.90;99.90;;;;;;5364667;26;20035;-80
2024/04/09 00:43:21;;;;;;;23.75;12.82;;;14.90;99.90;;;;;;5359932;26;20665;-80
2024/04/09 00:45:49;;;;;;;18.83;13.20;;;14.80;99.90;;;;;;5363443;26;20527;-80
2024/04/09 00:48:16;;;;;;;18.08;13.20;;;14.80;99.90;;;;;;5371394;26;20032;-79
2024/04/09 00:50:45;;;;;;;18.38;13.00;;;14.80;99.90;;;;;;5362754;26;20036;-80
2024/04/09 00:53:15;;;;;;;19.20;14.93;;;14.80;99.90;;;;;;5363036;26;20030;-79
2024/04/09 00:55:42;;;;;;;20.13;14.07;;;14.70;99.90;;;;;;5363757;26;20029;-79
2024/04/09 00:58:13;;;;;;;19.30;13.57;;;14.70;99.90;;;;;;5362919;26;20375;-79
2024/04/09 01:00:40;;;;;;;22.48;14.02;;;14.70;99.90;;;;;;5358413;26;20391;-79
2024/04/09 01:03:10;;;;;;;20.98;14.50;;;14.60;99.90;;;;;;5364816;26;20046;-79
2024/04/09 01:05:38;;;;;;;18.42;13.43;;;14.60;99.90;;;;;;5367716;26;20371;-78
2024/04/09 01:08:05;;;;;;;23.10;15.90;;;14.60;99.90;;;;;;5370607;26;20028;-78
2024/04/09 01:10:32;;;;;;;23.60;14.95;;;14.60;99.90;;;;;;5359913;26;20382;-78
2024/04/09 01:13:00;;;;;;;24.35;15.93;;;14.60;99.90;;;;;;5361123;26;20024;-78
2024/04/09 01:15:27;;;;;;;23.98;16.23;;;14.50;99.90;;;;;;5366108;26;20043;-78
2024/04/09 01:17:55;;;;;;;26.77;16.70;;;14.50;99.90;;;;;;5363313;26;20036;-78
2024/04/09 01:20:23;;;;;;;18.17;15.40;;;14.50;99.90;;;;;;5364754;26;20558;-78
2024/04/09 01:22:50;;;;;;;25.23;16.13;;;14.50;99.90;;;;;;5362116;26;20037;-77
2024/04/09 01:25:17;;;;;;;24.63;17.10;;;14.40;99.90;;;;;;5355233;26;20474;-77
2024/04/09 01:27:44;;;;;;;27.15;17.02;;;14.50;99.90;;;;;;5367265;26;20010;-78
2024/04/09 01:30:12;;;;;;;23.13;18.15;;;14.50;99.90;;;;;;5358373;26;20460;-78
2024/04/09 01:32:40;;;;;;;21.52;16.48;;;14.50;99.90;;;;;;5354567;26;20033;-78
2024/04/09 01:35:07;;;;;;;29.08;17.90;;;14.50;99.90;;;;;;5354279;26;20033;-77
2024/04/09 01:37:37;;;;;;;25.30;17.40;;;14.50;99.90;;;;;;5364230;26;20024;-78
2024/04/09 01:40:05;;;;;;;26.80;18.25;;;14.40;99.90;;;;;;5357588;26;20024;-78
2024/04/09 01:42:32;;;;;;;27.50;17.77;;;14.40;99.90;;;;;;5360503;26;20064;-77
2024/04/09 01:44:59;;;;;;;27.08;18.50;;;14.40;99.90;;;;;;5362662;26;20100;-77
2024/04/09 01:47:26;;;;;;;28.13;19.17;;;14.40;99.90;;;;;;5368547;26;20033;-78
2024/04/09 01:49:53;;;;;;;25.23;17.45;;;14.40;99.90;;;;;;5355903;26;20029;-78
2024/04/09 01:52:22;;;;;;;25.48;17.00;;;14.40;99.90;;;;;;5362565;26;20032;-78
2024/04/09 01:54:49;;;;;;;30.30;19.15;;;14.40;99.90;;;;;;5369378;26;20033;-77
2024/04/09 01:57:16;;;;;;;29.95;20.58;;;14.40;99.90;;;;;;5359169;26;20093;-78
2024/04/09 01:59:43;;;;;;;26.15;18.45;;;14.40;99.90;;;;;;5367502;26;20492;-77
2024/04/09 02:02:10;;;;;;;24.30;18.23;;;14.30;99.90;;;;;;5365724;26;20083;-77
2024/04/09 02:04:37;;;;;;;24.05;16.15;;;14.30;99.90;;;;;;5369270;26;20036;-77
2024/04/09 02:07:04;;;;;;;26.50;16.80;;;14.40;99.90;;;;;;5360694;26;20032;-78
2024/04/09 02:09:31;;;;;;;21.70;16.17;;;14.30;99.90;;;;;;5370423;26;20032;-79
2024/04/09 02:11:58;;;;;;;29.55;19.77;;;14.30;99.90;;;;;;5361286;26;20373;-77
2024/04/09 02:14:25;;;;;;;30.65;18.70;;;14.30;99.90;;;;;;5362576;26;20033;-77
2024/04/09 02:16:52;;;;;;;24.88;18.00;;;14.20;99.90;;;;;;5355298;26;20029;-77
2024/04/09 02:19:19;;;;;;;33.00;20.20;;;14.20;99.90;;;;;;5364700;26;20024;-78
2024/04/09 02:21:46;;;;;;;27.42;20.13;;;14.20;99.90;;;;;;5370535;26;20032;-77
2024/04/09 02:24:13;;;;;;;26.80;18.02;;;14.20;99.90;;;;;;5348564;26;20021;-77
2024/04/09 02:26:40;;;;;;;26.02;18.30;;;14.20;99.90;;;;;;5350748;26;20035;-78
2024/04/09 02:29:08;;;;;;;23.80;16.58;;;14.20;99.90;;;;;;5374809;26;20028;-77
2024/04/09 02:31:35;;;;;;;29.65;19.92;;;14.20;99.90;;;;;;5365333;26;20024;-77
2024/04/09 02:34:02;;;;;;;29.33;20.13;;;14.20;99.90;;;;;;5362837;26;20051;-77
2024/04/09 02:36:29;;;;;;;25.98;19.02;;;14.20;99.90;;;;;;5364143;26;20388;-78
2024/04/09 02:38:57;;;;;;;27.13;18.55;;;14.20;99.90;;;;;;5365125;26;20020;-79
2024/04/09 02:41:24;;;;;;;31.40;21.17;;;14.10;99.90;;;;;;5359796;26;20028;-79
2024/04/09 02:43:51;;;;;;;23.27;18.13;;;14.10;99.90;;;;;;5366180;26;20456;-79
2024/04/09 02:46:18;;;;;;;29.40;19.05;;;14.20;99.90;;;;;;5363484;26;20128;-78
2024/04/09 02:48:47;;;;;;;28.75;18.80;;;14.20;99.90;;;;;;5359020;26;20028;-79
2024/04/09 02:51:15;;;;;;;29.05;15.85;;;14.10;99.90;;;;;;5364733;26;20044;-79
2024/04/09 02:53:42;;;;;;;25.67;16.70;;;14.10;99.90;;;;;;5361527;26;20033;-80
2024/04/09 02:56:12;;;;;;;21.48;16.77;;;14.10;99.90;;;;;;5369411;26;20056;-78
2024/04/09 02:58:39;;;;;;;23.08;17.02;;;14.10;99.90;;;;;;5361498;26;20700;-79
2024/04/09 03:01:08;;;;;;;25.60;15.18;;;14.10;99.90;;;;;;5374343;26;20037;-79
2024/04/09 03:03:36;;;;;;;23.80;15.60;;;14.10;99.90;;;;;;5367499;26;20033;-79
2024/04/09 03:06:07;;;;;;;27.27;15.55;;;14.10;99.90;;;;;;5372481;26;20032;-79
2024/04/09 03:08:38;;;;;;;26.15;15.32;;;14.10;99.90;;;;;;5366134;26;20028;-79
2024/04/09 03:11:18;;;;;;;20.50;13.90;;;14.10;99.90;;;;;;5371212;26;20028;-80
2024/04/09 03:13:47;;;;;;;22.00;16.23;;;14.10;99.90;;;;;;5354636;26;20031;-80
2024/04/09 03:16:22;;;;;;;21.23;14.90;;;14.10;99.90;;;;;;5355725;26;20001;-79
2024/04/09 03:18:54;;;;;;;20.92;13.77;;;14.00;99.90;;;;;;5366119;26;20032;-79
2024/04/09 03:21:21;;;;;;;20.10;12.75;;;14.00;99.90;;;;;;5347789;26;20413;-79
2024/04/09 03:23:48;;;;;;;18.15;11.70;;;14.00;99.90;;;;;;5365289;26;20044;-79
2024/04/09 03:26:15;;;;;;;18.60;11.68;;;14.00;99.90;;;;;;5359313;26;20033;-79
2024/04/09 03:28:42;;;;;;;17.05;10.75;;;14.00;99.90;;;;;;5365336;26;20239;-79
2024/04/09 03:31:10;;;;;;;13.27;8.23;;;14.00;99.90;;;;;;5358982;26;20020;-78
2024/04/09 03:33:37;;;;;;;14.65;8.23;;;14.00;99.90;;;;;;5361806;26;20025;-79
2024/04/09 03:36:05;;;;;;;10.93;7.50;;;14.00;99.90;;;;;;5363373;26;20497;-78
2024/04/09 03:38:32;;;;;;;11.15;7.47;;;14.00;99.90;;;;;;5368674;26;20029;-79
2024/04/09 03:41:01;;;;;;;12.02;6.72;;;14.00;99.90;;;;;;5360921;26;20036;-79
2024/04/09 03:43:28;;;;;;;11.00;6.53;;;14.00;99.90;;;;;;5361269;26;20075;-78
2024/04/09 03:46:10;;;;;;;11.00;6.53;;;14.00;99.90;;;;;;5355582;26;20033;-79
2024/04/09 03:48:40;;;;;;;7.10;5.68;;;14.00;99.90;;;;;;5358631;26;20029;-78
2024/04/09 03:51:07;;;;;;;11.45;6.03;;;13.90;99.90;;;;;;5354289;26;20044;-79
2024/04/09 03:53:34;;;;;;;8.07;5.30;;;13.90;99.90;;;;;;5361871;26;20411;-79
2024/04/09 03:56:04;;;;;;;8.10;5.55;;;13.90;99.90;;;;;;5355301;26;20024;-78
2024/04/09 03:58:37;;;;;;;8.98;5.65;;;13.90;99.90;;;;;;5355245;26;20060;-79
2024/04/09 04:01:05;;;;;;;8.35;6.10;;;13.90;99.90;;;;;;5364743;26;20037;-77
2024/04/09 04:03:32;;;;;;;10.85;5.40;;;13.90;99.90;;;;;;5355239;26;20028;-78
2024/04/09 04:06:00;;;;;;;8.35;4.93;;;13.90;99.90;;;;;;5354676;26;20001;-78
2024/04/09 04:08:29;;;;;;;9.18;4.85;;;13.90;99.90;;;;;;5350196;26;20029;-78
2024/04/09 04:10:57;;;;;;;9.40;5.00;;;13.80;99.90;;;;;;5357042;26;20024;-79
2024/04/09 04:13:26;;;;;;;7.60;5.30;;;13.80;99.90;;;;;;5364614;26;20029;-79
2024/04/09 04:16:05;;;;;;;6.40;4.55;;;13.80;99.90;;;;;;5354962;26;20021;-79
2024/04/09 04:18:37;;;;;;;7.07;4.53;;;13.80;99.90;;;;;;5385661;26;20744;-79
2024/04/09 04:21:06;;;;;;;7.28;4.70;;;13.70;99.90;;;;;;5364082;26;20029;-79
2024/04/09 04:23:33;;;;;;;9.27;4.43;;;13.80;99.90;;;;;;5363205;26;20033;-78
2024/04/09 04:26:02;;;;;;;8.23;4.25;;;13.70;99.90;;;;;;5364602;26;20014;-79
2024/04/09 04:28:29;;;;;;;8.45;4.40;;;13.80;99.90;;;;;;5363070;26;20047;-79
2024/04/09 04:30:57;;;;;;;6.13;4.30;;;13.80;99.90;;;;;;5366417;26;20028;-78
2024/04/09 04:33:24;;;;;;;6.75;3.80;;;13.80;99.90;;;;;;5368430;26;21292;-78
2024/04/09 04:35:54;;;;;;;12.32;5.93;;;13.80;99.90;;;;;;5368410;26;20032;-79
2024/04/09 04:38:21;;;;;;;9.07;5.70;;;13.80;99.90;;;;;;5360328;26;20041;-79
2024/04/09 04:40:49;;;;;;;8.38;5.65;;;13.80;99.90;;;;;;5375695;26;20036;-79
2024/04/09 04:43:17;;;;;;;8.55;6.22;;;13.80;99.90;;;;;;5364164;26;20440;-79
2024/04/09 04:45:44;;;;;;;7.93;7.13;;;13.80;99.90;;;;;;5369400;26;20036;-79
2024/04/09 04:48:12;;;;;;;10.57;6.60;;;13.80;99.90;;;;;;5357095;26;20024;-79
2024/04/09 04:50:39;;;;;;;9.07;6.60;;;13.80;99.90;;;;;;5365354;26;20059;-80
2024/04/09 04:53:06;;;;;;;8.25;5.93;;;13.80;99.90;;;;;;5348673;26;20022;-79
2024/04/09 04:55:33;;;;;;;10.18;7.35;;;13.80;99.90;;;;;;5361504;26;20040;-78
2024/04/09 04:58:03;;;;;;;9.65;7.53;;;13.70;99.90;;;;;;5359300;26;20037;-78
2024/04/09 05:00:31;;;;;;;9.55;6.90;;;13.70;99.90;;;;;;5361749;26;20032;-78
2024/04/09 05:02:58;;;;;;;10.32;7.28;;;13.70;99.90;;;;;;5356621;26;20062;-79
2024/04/09 05:05:26;;;;;;;9.90;8.23;;;13.70;99.90;;;;;;5361535;26;20032;-79
2024/04/09 05:07:53;;;;;;;7.80;6.95;;;13.60;99.90;;;;;;5358637;26;20028;-79
2024/04/09 05:10:20;;;;;;;9.82;6.45;;;13.60;99.90;;;;;;5363196;26;20101;-78
2024/04/09 05:12:48;;;;;;;148.60;129.43;;;13.60;99.90;;;;;;5357031;26;20376;-78
2024/04/09 05:15:16;;;;;;;11.30;8.13;;;13.60;99.90;;;;;;5360423;26;20053;-77
2024/04/09 05:17:45;;;;;;;10.18;6.60;;;13.60;99.90;;;;;;5364603;26;20024;-78
2024/04/09 05:20:15;;;;;;;9.73;6.53;;;13.60;99.90;;;;;;5361054;26;20101;-78
2024/04/09 05:22:49;;;;;;;7.88;5.95;;;13.60;99.90;;;;;;5366355;26;20369;-78
2024/04/09 05:25:18;;;;;;;6.55;5.85;;;13.60;99.90;;;;;;5355914;26;20037;-74
2024/04/09 05:27:45;;;;;;;10.35;5.68;;;13.60;99.90;;;;;;5358230;26;20071;-74
2024/04/09 05:30:12;;;;;;;9.70;5.38;;;13.60;99.90;;;;;;5355757;26;20535;-74
2024/04/09 05:32:43;;;;;;;9.52;5.63;;;13.50;99.90;;;;;;5360243;26;20015;-74
2024/04/09 05:35:12;;;;;;;10.93;5.53;;;13.50;99.90;;;;;;5365022;26;20064;-74
2024/04/09 05:37:39;;;;;;;7.53;4.93;;;13.50;99.90;;;;;;5366738;26;20032;-75
2024/04/09 05:40:10;;;;;;;10.07;4.65;;;13.50;99.90;;;;;;5361052;26;20029;-75
2024/04/09 05:42:38;;;;;;;6.90;3.83;;;13.50;99.90;;;;;;5364278;26;20033;-74
2024/04/09 05:45:15;;;;;;;6.90;3.47;;;13.30;99.90;;;;;;5360062;26;20031;-75
2024/04/09 05:47:42;;;;;;;7.57;4.45;;;13.40;99.90;;;;;;5334648;26;20024;-74
2024/04/09 05:50:10;;;;;;;7.75;4.60;;;13.40;99.90;;;;;;5360504;26;20029;-74
2024/04/09 05:52:37;;;;;;;10.60;4.60;;;13.30;99.90;;;;;;5364421;26;20316;-74
2024/04/09 05:55:05;;;;;;;10.30;4.85;;;13.30;99.90;;;;;;5360547;26;20024;-74
2024/04/09 05:57:36;;;;;;;8.60;4.32;;;13.30;99.90;;;;;;5357742;26;20029;-74
2024/04/09 06:00:11;;;;;;;7.25;4.00;;;13.20;99.90;;;;;;5354150;26;20497;-74
2024/04/09 06:02:38;;;;;;;9.30;4.10;;;13.10;99.90;;;;;;5362176;26;20445;-74
2024/04/09 06:05:05;;;;;;;8.93;3.30;;;13.10;99.90;;;;;;5360798;26;20025;-74
2024/04/09 06:07:32;;;;;;;10.43;2.80;;;13.10;99.90;;;;;;5367929;26;20035;-74
2024/04/09 06:09:59;;;;;;;10.23;2.67;;;13.10;99.90;;;;;;5362558;26;20041;-74
2024/04/09 06:12:27;;;;;;;9.27;2.70;;;13.00;99.90;;;;;;5361489;26;20037;-74
2024/04/09 06:14:54;;;;;;;8.25;2.10;;;13.00;99.90;;;;;;5366714;26;20028;-74
2024/04/09 06:17:21;;;;;;;10.50;2.72;;;13.00;99.90;;;;;;5368547;26;20043;-74
2024/04/09 06:19:49;;;;;;;6.13;2.45;;;12.90;99.90;;;;;;5367706;26;20036;-74
2024/04/09 06:22:17;;;;;;;8.82;2.70;;;12.90;99.90;;;;;;5355077;26;20032;-74
2024/04/09 06:24:48;;;;;;;6.90;2.17;;;12.80;99.90;;;;;;5369982;26;20041;-74
2024/04/09 06:27:14;;;;;;;9.52;2.50;;;12.80;99.90;;;;;;5360689;26;20037;-74
2024/04/09 06:29:42;;;;;;;8.73;2.63;;;12.80;99.90;;;;;;5368483;26;20379;-74
2024/04/09 06:32:09;;;;;;;6.72;2.45;;;12.70;99.90;;;;;;5361895;26;20040;-73
2024/04/09 06:34:36;;;;;;;9.90;2.30;;;12.70;99.90;;;;;;5365774;26;20367;-73
2024/04/09 06:37:03;;;;;;;8.85;2.10;;;12.70;99.90;;;;;;5361917;26;20024;-74
2024/04/09 06:39:30;;;;;;;9.23;2.25;;;12.60;99.90;;;;;;5359260;26;20033;-73
2024/04/09 06:41:59;;;;;;;5.70;2.00;;;12.60;99.90;;;;;;5355680;26;20033;-74
2024/04/09 06:44:26;;;;;;;11.07;2.10;;;12.50;99.90;;;;;;5357376;26;20465;-73
2024/04/09 06:46:53;;;;;;;6.78;1.90;;;12.60;99.90;;;;;;5364990;26;20036;-73
2024/04/09 06:49:20;;;;;;;8.13;2.20;;;12.50;99.90;;;;;;5365404;26;20024;-73
2024/04/09 06:51:47;;;;;;;8.95;2.03;;;12.60;99.90;;;;;;5356442;26;20405;-73
2024/04/09 06:54:14;;;;;;;9.43;1.88;;;12.60;99.90;;;;;;5357051;26;20032;-73
2024/04/09 06:56:41;;;;;;;9.60;2.30;;;12.60;99.90;;;;;;5353623;26;20044;-73
2024/04/09 06:59:08;;;;;;;8.50;2.03;;;12.70;99.90;;;;;;5358017;26;20032;-73
2024/04/09 07:01:35;;;;;;;9.05;1.83;;;12.80;99.90;;;;;;5355236;26;20045;-73
2024/04/09 07:04:04;;;;;;;11.38;4.35;;;12.80;99.90;;;;;;5356273;26;20029;-73
2024/04/09 07:06:31;;;;;;;9.18;1.95;;;12.80;99.90;;;;;;5363865;26;20500;-73
2024/04/09 07:09:02;;;;;;;9.40;2.53;;;12.90;99.90;;;;;;5363261;26;20036;-73
2024/04/09 07:11:31;;;;;;;8.65;2.28;;;12.90;99.90;;;;;;5360697;26;20049;-73
2024/04/09 07:13:58;;;;;;;6.40;2.35;;;12.90;99.90;;;;;;5367330;26;20024;-73
2024/04/09 07:16:25;;;;;;;11.68;2.22;;;13.00;99.90;;;;;;5363381;26;20457;-73
2024/04/09 07:18:52;;;;;;;12.98;2.33;;;12.90;99.90;;;;;;5351043;26;20072;-73
2024/04/09 07:21:19;;;;;;;6.38;1.55;;;12.90;99.90;;;;;;5354860;26;20033;-73
2024/04/09 07:23:47;;;;;;;9.50;2.30;;;12.90;99.90;;;;;;5354972;26;20032;-73
2024/04/09 07:26:14;;;;;;;8.38;2.22;;;12.90;99.90;;;;;;5353921;26;20374;-73
2024/04/09 07:28:41;;;;;;;9.90;2.50;;;12.90;99.90;;;;;;5352143;26;20080;-72
2024/04/09 07:31:10;;;;;;;8.85;2.20;;;12.90;99.90;;;;;;5367581;26;20145;-73
2024/04/09 07:33:37;;;;;;;8.57;2.20;;;12.90;99.90;;;;;;5359782;26;20025;-72
2024/04/09 07:36:04;;;;;;;16.40;2.45;;;12.90;99.90;;;;;;5361545;26;20403;-73
2024/04/09 07:38:33;;;;;;;10.60;2.17;;;12.90;99.90;;;;;;5360865;26;20029;-73
2024/04/09 07:41:00;;;;;;;8.30;2.10;;;12.90;99.90;;;;;;5361114;26;20028;-73
2024/04/09 07:43:28;;;;;;;6.65;2.00;;;12.90;99.90;;;;;;5361573;26;20025;-73
2024/04/09 07:45:55;;;;;;;8.30;1.98;;;12.90;99.90;;;;;;5366872;26;20029;-73
2024/04/09 07:48:24;;;;;;;10.80;2.00;;;12.90;99.90;;;;;;5356978;26;20025;-73
2024/04/09 07:50:52;;;;;;;8.90;2.35;;;12.90;99.90;;;;;;5364387;26;20029;-73
2024/04/09 07:53:20;;;;;;;8.02;2.30;;;12.90;99.90;;;;;;5367055;26;20043;-73
2024/04/09 07:55:47;;;;;;;8.88;2.15;;;12.90;99.90;;;;;;5362288;26;20036;-73
2024/04/09 07:58:14;;;;;;;7.97;2.00;;;12.90;99.90;;;;;;5363003;26;20033;-73
2024/04/09 08:00:44;;;;;;;6.72;1.75;;;12.90;99.90;;;;;;5360141;26;20035;-73
2024/04/09 08:03:12;;;;;;;8.60;2.13;;;12.90;99.90;;;;;;5361444;26;20037;-73
2024/04/09 08:05:39;;;;;;;8.82;2.40;;;12.90;99.90;;;;;;5362872;26;20028;-73
2024/04/09 08:08:07;;;;;;;10.18;2.13;;;12.90;99.90;;;;;;5356875;26;20001;-73
2024/04/09 08:10:34;;;;;;;10.38;2.13;;;13.00;99.90;;;;;;5361021;26;20044;-73
2024/04/09 08:13:01;;;;;;;11.82;2.72;;;13.00;99.90;;;;;;5366080;26;20024;-73
2024/04/09 08:15:29;;;;;;;8.10;2.30;;;13.00;99.90;;;;;;5363257;26;20024;-73
2024/04/09 08:17:56;;;;;;;9.15;2.50;;;13.10;99.90;;;;;;5373456;26;20361;-73
2024/04/09 08:20:24;;;;;;;10.30;2.20;;;13.10;99.90;;;;;;5372124;26;20379;-73
2024/04/09 08:22:52;;;;;;;8.85;2.05;;;13.10;99.90;;;;;;5359688;26;20037;-73
2024/04/09 08:25:20;;;;;;;6.57;1.90;;;13.00;99.90;;;;;;5355370;26;20033;-73
2024/04/09 08:27:47;;;;;;;9.00;2.80;;;13.10;99.90;;;;;;5366598;26;20124;-73
2024/04/09 08:30:18;;;;;;;10.57;2.92;;;13.10;99.90;;;;;;5362869;26;20028;-73
2024/04/09 08:32:46;;;;;;;6.93;2.88;;;13.10;99.90;;;;;;5362825;26;20032;-73
2024/04/09 08:35:13;;;;;;;7.03;2.10;;;13.20;99.90;;;;;;5359275;26;20032;-73
2024/04/09 08:37:44;;;;;;;9.48;3.35;;;13.30;99.90;;;;;;5367693;26;20053;-73
2024/04/09 08:40:11;;;;;;;7.97;2.85;;;13.50;99.90;;;;;;5361029;26;20028;-73
2024/04/09 08:42:39;;;;;;;6.90;3.10;;;13.70;99.90;;;;;;5367458;26;20028;-73
2024/04/09 08:45:14;;;;;;;7.00;3.50;;;13.80;99.90;;;;;;5366494;26;20031;-73
2024/04/09 08:47:41;;;;;;;8.00;3.83;;;13.90;99.90;;;;;;5367974;26;20028;-73
2024/04/09 08:50:08;;;;;;;8.23;4.03;;;13.90;99.90;;;;;;5366422;26;20473;-73
2024/04/09 08:52:36;;;;;;;4.45;3.45;;;14.50;99.90;;;;;;5360145;26;20033;-73
2024/04/09 08:55:05;;;;;;;7.43;2.97;;;15.40;99.90;;;;;;5367478;26;20024;-73
2024/04/09 08:57:32;;;;;;;5.97;3.55;;;15.80;99.90;;;;;;5356555;26;20107;-73
2024/04/09 09:00:06;;;;;;;6.65;3.10;;;15.90;99.90;;;;;;5356165;26;20041;-73
2024/04/09 09:02:35;;;;;;;8.52;3.47;;;15.90;99.90;;;;;;5356408;26;20032;-74
2024/04/09 09:05:03;;;;;;;5.85;3.15;;;15.90;99.90;;;;;;5355997;26;20377;-73
2024/04/09 09:07:30;;;;;;;6.57;2.95;;;16.10;99.90;;;;;;5361126;26;20036;-73
2024/04/09 09:10:02;;;;;;;6.28;2.92;;;16.20;99.90;;;;;;5358923;26;20378;-73
2024/04/09 09:12:30;;;;;;;3.05;2.42;;;16.40;99.90;;;;;;5353950;26;20029;-73
2024/04/09 09:15:00;;;;;;;5.38;3.00;;;16.70;99.90;;;;;;5357590;26;20021;-72
2024/04/09 09:17:31;;;;;;;5.00;2.50;;;17.20;99.90;;;;;;5365939;26;20028;-73
2024/04/09 09:20:09;;;;;;;7.68;3.22;;;17.30;99.90;;;;;;5373263;26;20131;-73
2024/04/09 09:22:46;;;;;;;8.07;2.85;;;17.20;99.90;;;;;;5354138;26;20028;-72
2024/04/09 09:25:18;;;;;;;5.38;2.60;;;16.80;99.90;;;;;;5359762;26;20028;-72
2024/04/09 09:27:46;;;;;;;7.65;2.65;;;16.50;99.90;;;;;;5357789;26;20040;-73
2024/04/09 09:30:16;;;;;;;6.07;2.40;;;16.20;99.90;;;;;;5361159;26;20032;-72
2024/04/09 09:32:48;;;;;;;4.15;2.42;;;15.90;99.90;;;;;;5361834;26;20029;-72
2024/04/09 09:35:19;;;;;;;4.15;2.30;;;15.60;99.90;;;;;;5362401;26;20036;-72
2024/04/09 09:37:51;;;;;;;6.85;2.97;;;15.40;99.90;;;;;;5360023;26;20029;-72
2024/04/09 09:40:18;;;;;;;7.82;2.55;;;15.30;99.90;;;;;;5365954;26;20056;-72
2024/04/09 09:42:47;;;;;;;6.25;1.73;;;15.10;99.90;;;;;;5361218;26;20461;-72
2024/04/09 09:45:15;;;;;;;6.43;2.10;;;15.00;99.90;;;;;;5372992;26;20472;-72
2024/04/09 09:47:43;;;;;;;4.70;1.60;;;14.90;99.90;;;;;;5359119;26;20041;-72
2024/04/09 09:50:11;;;;;;;5.10;1.30;;;15.00;99.90;;;;;;5375029;26;20040;-73
2024/04/09 09:52:45;;;;;;;3.30;0.80;;;15.10;99.90;;;;;;5363725;26;20028;-74
2024/04/09 09:55:12;;;;;;;4.03;0.77;;;15.40;99.90;;;;;;5367842;26;20028;-73
2024/04/09 09:57:42;;;;;;;4.82;1.08;;;15.80;99.90;;;;;;5364958;26;20040;-73
2024/04/09 10:00:12;;;;;;;3.15;0.88;;;16.30;99.90;;;;;;5362930;26;20458;-74
2024/04/09 10:02:42;;;;;;;6.30;1.50;;;16.40;99.90;;;;;;5354457;26;20020;-73
2024/04/09 10:05:14;;;;;;;2.88;0.88;;;16.40;99.90;;;;;;5357892;26;20083;-74
2024/04/09 10:07:43;;;;;;;4.38;1.10;;;16.50;99.90;;;;;;5362762;26;20044;-74
2024/04/09 10:10:10;;;;;;;4.60;1.17;;;17.00;99.90;;;;;;5355436;26;20036;-75
2024/04/09 10:12:37;;;;;;;4.18;0.80;;;17.60;99.90;;;;;;5357400;26;20028;-74
2024/04/09 10:15:11;;;;;;;3.63;0.73;;;18.10;99.90;;;;;;5360577;26;20048;-75
2024/04/09 10:17:49;;;;;;;4.13;1.05;;;18.00;99.90;;;;;;5361751;26;20040;-76
2024/04/09 10:20:21;;;;;;;4.28;0.95;;;17.50;99.90;;;;;;5359244;26;20029;-75
2024/04/09 10:22:51;;;;;;;3.72;0.80;;;17.00;99.90;;;;;;5373186;26;20033;-75
2024/04/09 10:25:23;;;;;;;3.55;0.90;;;16.80;99.90;;;;;;5361667;26;20032;-75
2024/04/09 10:27:59;;;;;;;2.72;0.77;;;16.60;99.90;;;;;;5367713;26;20025;-75
2024/04/09 10:30:29;;;;;;;4.60;1.00;;;16.40;99.90;;;;;;5351532;26;20036;-75
2024/04/09 10:33:03;;;;;;;5.55;1.00;;;16.40;99.90;;;;;;5363702;26;20024;-75
2024/04/09 10:35:31;;;;;;;3.97;1.13;;;16.40;99.90;;;;;;5361654;26;20040;-75
2024/04/09 10:38:04;;;;;;;3.95;0.88;;;16.50;99.90;;;;;;5362149;26;20024;-75
2024/04/09 10:40:36;;;;;;;3.13;1.13;;;16.50;99.90;;;;;;5358526;26;19997;-75
2024/04/09 10:43:07;;;;;;;3.78;0.75;;;16.80;99.90;;;;;;5357478;26;20705;-75
2024/04/09 10:45:35;;;;;;;4.25;1.00;;;17.20;99.90;;;;;;5354682;26;20368;-75
2024/04/09 10:48:02;;;;;;;2.95;0.98;;;17.20;99.90;;;;;;5363115;26;19997;-75
2024/04/09 10:50:30;;;;;;;2.97;0.98;;;17.10;99.90;;;;;;5350584;26;20072;-74
2024/04/09 10:52:58;;;;;;;5.28;1.08;;;17.00;99.90;;;;;;5355543;26;20015;-74
2024/04/09 10:55:25;;;;;;;3.33;0.93;;;17.00;99.90;;;;;;5353408;26;20033;-75
2024/04/09 10:57:53;;;;;;;2.90;0.90;;;16.90;99.90;;;;;;5364228;26;20028;-74
2024/04/09 11:00:21;;;;;;;2.30;0.60;;;16.70;99.90;;;;;;5362033;26;20075;-75
2024/04/09 11:02:48;;;;;;;2.60;0.70;;;16.60;99.90;;;;;;5359376;26;20031;-75
2024/04/09 11:05:17;;;;;;;3.53;0.70;;;16.40;99.90;;;;;;5359964;26;20461;-74
2024/04/09 11:07:47;;;;;;;2.28;0.63;;;16.20;99.90;;;;;;5365701;26;20340;-75
2024/04/09 11:10:16;;;;;;;3.60;0.70;;;16.00;99.90;;;;;;5362308;26;20500;-74
2024/04/09 11:12:53;;;;;;;4.10;0.70;;;15.90;99.90;;;;;;5362647;26;20040;-74
2024/04/09 11:15:21;;;;;;;2.78;0.50;;;15.80;99.90;;;;;;5363290;26;20025;-75
2024/04/09 11:17:48;;;;;;;3.30;0.60;;;15.80;99.90;;;;;;5366261;26;20025;-74
2024/04/09 11:20:18;;;;;;;5.13;0.77;;;16.00;99.90;;;;;;5368671;26;20032;-74
2024/04/09 11:22:50;;;;;;;5.30;0.90;;;16.00;99.90;;;;;;5364889;26;20024;-74
2024/04/09 11:25:25;;;;;;;5.47;0.60;;;15.90;99.90;;;;;;5366756;26;20744;-74
2024/04/09 11:27:52;;;;;;;;;;;15.80;99.90;;;;;;5367507;26;20043;-74
2024/04/09 11:30:28;;;;;;;2.05;0.70;;;15.70;99.90;;;;;;5358302;26;19954;-74
2024/04/09 11:32:56;;;;;;;3.95;0.40;;;15.70;99.90;;;;;;5357983;26;20032;-74
2024/04/09 11:35:24;;;;;;;4.32;0.82;;;15.70;99.90;;;;;;5353128;26;20029;-75
2024/04/09 11:37:55;;;;;;;3.78;0.70;;;15.80;99.90;;;;;;5352275;26;20028;-74
2024/04/09 11:40:30;;;;;;;2.53;0.80;;;15.80;99.90;;;;;;5363318;26;20036;-74
2024/04/09 11:42:58;;;;;;;7.35;1.00;;;15.80;99.90;;;;;;5367051;26;20001;-74
2024/04/09 11:45:30;;;;;;;5.38;0.98;;;15.60;99.90;;;;;;5360848;26;20024;-74
2024/04/09 11:47:57;;;;;;;3.60;0.85;;;15.50;99.90;;;;;;5365978;26;20037;-74
2024/04/09 11:50:25;;;;;;;3.35;0.60;;;15.40;99.90;;;;;;5367247;26;20020;-74
2024/04/09 11:52:52;;;;;;;2.65;0.52;;;15.40;99.90;;;;;;5364945;26;20045;-73
2024/04/09 11:55:19;;;;;;;4.05;0.50;;;15.20;99.90;;;;;;5366872;26;20025;-73
2024/04/09 11:57:47;;;;;;;5.70;0.50;;;15.10;99.90;;;;;;5364275;26;20105;-73
2024/04/09 12:00:15;;;;;;;3.72;0.47;;;15.00;99.90;;;;;;5366715;26;20042;-74
2024/04/09 12:02:44;;;;;;;3.03;0.43;;;15.00;99.90;;;;;;5361356;26;20032;-73
2024/04/09 12:05:14;;;;;;;4.00;0.65;;;15.00;99.90;;;;;;5360721;26;20037;-73
2024/04/09 12:07:42;;;;;;;4.05;0.75;;;15.20;99.90;;;;;;5358912;26;20032;-73
2024/04/09 12:10:10;;;;;;;2.67;0.38;;;15.40;99.90;;;;;;5364758;26;20024;-74
2024/04/09 12:12:38;;;;;;;9.15;2.67;;;15.50;99.90;;;;;;5366208;26;20025;-75
2024/04/09 12:15:05;;;;;;;4.07;0.95;;;15.40;99.90;;;;;;5363144;26;20028;-74
2024/04/09 12:17:33;;;;;;;4.47;0.50;;;15.30;99.90;;;;;;5354426;26;20485;-75
2024/04/09 12:20:00;;;;;;;3.92;0.43;;;15.40;99.90;;;;;;5358477;26;20048;-75
2024/04/09 12:22:28;;;;;;;3.70;0.55;;;15.40;99.90;;;;;;5356057;26;20024;-74
2024/04/09 12:24:56;;;;;;;7.07;0.70;;;15.40;99.90;;;;;;5365786;26;20513;-73
2024/04/09 12:27:23;;;;;;;2.97;0.70;;;15.30;99.90;;;;;;5366931;26;20056;-74
2024/04/09 12:29:50;;;;;;;2.65;0.52;;;15.10;99.90;;;;;;5352200;26;20020;-74
2024/04/09 12:32:17;;;;;;;3.13;0.40;;;14.90;99.90;;;;;;5353673;26;20034;-74
2024/04/09 12:34:45;;;;;;;2.83;0.68;;;14.80;99.90;;;;;;5359123;26;20468;-74
2024/04/09 12:37:12;;;;;;;3.13;0.70;;;14.70;99.90;;;;;;5362518;26;20025;-74
2024/04/09 12:39:39;;;;;;;2.83;0.70;;;14.60;99.90;;;;;;5372308;26;20039;-74
2024/04/09 12:42:08;;;;;;;3.70;0.50;;;14.60;99.90;;;;;;5367338;26;20346;-74
2024/04/09 12:44:35;;;;;;;4.20;0.47;;;14.60;99.90;;;;;;5361461;26;20025;-73
2024/04/09 12:47:03;;;;;;;2.97;0.50;;;14.60;99.90;;;;;;5367123;26;20032;-73